sensor_id;sensor_type;location;lat;lon;timestamp;P1;durP1;ratioP1;P2;durP2;ratioP2
10473;SDS011;5284;50.446;7.904;2024-02-21T00:00:07;28.83;;;9.18;;
10473;SDS011;5284;50.446;7.904;2024-02-21T00:05:14;26.05;;;7.68;;
10473;SDS011;5284;50.446;7.904;2024-02-21T00:10:17;34.00;;;10.60;;
10473;SDS011;5284;50.446;7.904;2024-02-21T00:15:20;26.85;;;7.25;;
10473;SDS011;5284;50.446;7.904;2024-02-21T00:20:26;34.80;;;9.55;;
10473;SDS011;5284;50.446;7.904;2024-02-21T00:25:30;38.47;;;9.35;;
10473;SDS011;5284;50.446;7.904;2024-02-21T00:30:33;30.55;;;9.60;;
10473;SDS011;5284;50.446;7.904;2024-02-21T00:35:37;20.55;;;7.18;;
10473;SDS011;5284;50.446;7.904;2024-02-21T00:40:40;27.27;;;7.40;;
10473;SDS011;5284;50.446;7.904;2024-02-21T00:45:43;24.50;;;5.70;;
10473;SDS011;5284;50.446;7.904;2024-02-21T00:50:48;17.00;;;7.13;;
10473;SDS011;5284;50.446;7.904;2024-02-21T00:55:51;19.70;;;6.22;;
10473;SDS011;5284;50.446;7.904;2024-02-21T01:00:54;19.92;;;6.43;;
10473;SDS011;5284;50.446;7.904;2024-02-21T01:05:58;22.25;;;5.85;;
10473;SDS011;5284;50.446;7.904;2024-02-21T01:11:02;23.60;;;5.72;;
10473;SDS011;5284;50.446;7.904;2024-02-21T01:16:05;19.20;;;5.60;;
10473;SDS011;5284;50.446;7.904;2024-02-21T01:21:10;24.38;;;5.88;;
10473;SDS011;5284;50.446;7.904;2024-02-21T01:26:13;26.05;;;6.43;;
10473;SDS011;5284;50.446;7.904;2024-02-21T01:31:17;19.85;;;6.93;;
10473;SDS011;5284;50.446;7.904;2024-02-21T01:36:21;14.73;;;5.72;;
10473;SDS011;5284;50.446;7.904;2024-02-21T01:41:25;23.98;;;6.18;;
10473;SDS011;5284;50.446;7.904;2024-02-21T01:46:28;19.95;;;6.40;;
10473;SDS011;5284;50.446;7.904;2024-02-21T01:51:33;25.70;;;7.05;;
10473;SDS011;5284;50.446;7.904;2024-02-21T01:56:37;12.40;;;5.05;;
10473;SDS011;5284;50.446;7.904;2024-02-21T02:01:40;20.80;;;5.82;;
10473;SDS011;5284;50.446;7.904;2024-02-21T02:06:45;19.58;;;5.18;;
10473;SDS011;5284;50.446;7.904;2024-02-21T02:11:49;17.80;;;5.60;;
10473;SDS011;5284;50.446;7.904;2024-02-21T02:16:52;21.10;;;5.57;;
10473;SDS011;5284;50.446;7.904;2024-02-21T02:21:59;18.75;;;4.70;;
10473;SDS011;5284;50.446;7.904;2024-02-21T02:27:11;12.82;;;4.78;;
10473;SDS011;5284;50.446;7.904;2024-02-21T02:37:53;60.78;;;5.53;;
10473;SDS011;5284;50.446;7.904;2024-02-21T02:42:59;17.27;;;4.97;;
10473;SDS011;5284;50.446;7.904;2024-02-21T02:48:03;18.45;;;5.22;;
10473;SDS011;5284;50.446;7.904;2024-02-21T02:53:06;18.00;;;4.50;;
10473;SDS011;5284;50.446;7.904;2024-02-21T02:58:11;26.95;;;5.88;;
10473;SDS011;5284;50.446;7.904;2024-02-21T03:03:14;23.50;;;5.35;;
10473;SDS011;5284;50.446;7.904;2024-02-21T03:08:17;11.70;;;4.75;;
10473;SDS011;5284;50.446;7.904;2024-02-21T03:13:22;13.52;;;4.05;;
10473;SDS011;5284;50.446;7.904;2024-02-21T03:18:25;20.60;;;4.70;;
10473;SDS011;5284;50.446;7.904;2024-02-21T03:23:28;9.80;;;3.92;;
10473;SDS011;5284;50.446;7.904;2024-02-21T03:28:33;20.90;;;5.05;;
10473;SDS011;5284;50.446;7.904;2024-02-21T03:33:36;20.25;;;4.88;;
10473;SDS011;5284;50.446;7.904;2024-02-21T03:38:40;21.70;;;4.75;;
10473;SDS011;5284;50.446;7.904;2024-02-21T03:43:45;21.10;;;5.63;;
10473;SDS011;5284;50.446;7.904;2024-02-21T03:48:48;8.07;;;4.03;;
10473;SDS011;5284;50.446;7.904;2024-02-21T03:53:52;15.90;;;5.00;;
10473;SDS011;5284;50.446;7.904;2024-02-21T03:58:57;18.33;;;4.65;;
10473;SDS011;5284;50.446;7.904;2024-02-21T04:04:00;21.13;;;3.80;;
10473;SDS011;5284;50.446;7.904;2024-02-21T04:09:03;19.83;;;4.53;;
10473;SDS011;5284;50.446;7.904;2024-02-21T04:14:08;15.68;;;4.57;;
10473;SDS011;5284;50.446;7.904;2024-02-21T04:19:13;18.10;;;3.93;;
10473;SDS011;5284;50.446;7.904;2024-02-21T04:24:16;25.85;;;5.13;;
10473;SDS011;5284;50.446;7.904;2024-02-21T04:29:20;21.77;;;4.22;;
10473;SDS011;5284;50.446;7.904;2024-02-21T04:34:23;21.25;;;4.63;;
10473;SDS011;5284;50.446;7.904;2024-02-21T04:39:26;17.10;;;4.55;;
10473;SDS011;5284;50.446;7.904;2024-02-21T04:44:30;14.48;;;4.28;;
10473;SDS011;5284;50.446;7.904;2024-02-21T04:49:33;14.52;;;4.20;;
10473;SDS011;5284;50.446;7.904;2024-02-21T04:54:37;23.02;;;3.88;;
10473;SDS011;5284;50.446;7.904;2024-02-21T04:59:41;21.90;;;4.03;;
10473;SDS011;5284;50.446;7.904;2024-02-21T05:04:45;15.45;;;4.10;;
10473;SDS011;5284;50.446;7.904;2024-02-21T05:09:49;14.57;;;4.43;;
10473;SDS011;5284;50.446;7.904;2024-02-21T05:14:53;24.25;;;3.85;;
10473;SDS011;5284;50.446;7.904;2024-02-21T05:19:57;15.00;;;4.32;;
10473;SDS011;5284;50.446;7.904;2024-02-21T05:25:02;16.80;;;5.07;;
10473;SDS011;5284;50.446;7.904;2024-02-21T05:30:06;17.23;;;4.43;;
10473;SDS011;5284;50.446;7.904;2024-02-21T05:35:11;14.63;;;4.63;;
10473;SDS011;5284;50.446;7.904;2024-02-21T05:40:14;14.60;;;4.32;;
10473;SDS011;5284;50.446;7.904;2024-02-21T05:45:19;18.70;;;5.13;;
10473;SDS011;5284;50.446;7.904;2024-02-21T05:50:22;8.88;;;3.72;;
10473;SDS011;5284;50.446;7.904;2024-02-21T05:55:26;14.68;;;4.13;;
10473;SDS011;5284;50.446;7.904;2024-02-21T06:00:32;17.38;;;3.67;;
10473;SDS011;5284;50.446;7.904;2024-02-21T06:05:36;12.13;;;4.03;;
10473;SDS011;5284;50.446;7.904;2024-02-21T06:10:40;23.77;;;3.92;;
10473;SDS011;5284;50.446;7.904;2024-02-21T06:15:45;18.20;;;4.28;;
10473;SDS011;5284;50.446;7.904;2024-02-21T06:20:49;27.42;;;3.83;;
10473;SDS011;5284;50.446;7.904;2024-02-21T06:25:53;17.13;;;3.90;;
10473;SDS011;5284;50.446;7.904;2024-02-21T06:30:58;24.55;;;4.32;;
10473;SDS011;5284;50.446;7.904;2024-02-21T06:36:02;10.00;;;4.38;;
10473;SDS011;5284;50.446;7.904;2024-02-21T06:41:05;27.98;;;4.60;;
10473;SDS011;5284;50.446;7.904;2024-02-21T06:46:10;17.65;;;4.47;;
10473;SDS011;5284;50.446;7.904;2024-02-21T06:51:13;15.13;;;5.05;;
10473;SDS011;5284;50.446;7.904;2024-02-21T06:56:16;17.98;;;5.47;;
10473;SDS011;5284;50.446;7.904;2024-02-21T07:01:21;24.27;;;5.10;;
10473;SDS011;5284;50.446;7.904;2024-02-21T07:06:24;13.52;;;4.32;;
10473;SDS011;5284;50.446;7.904;2024-02-21T07:11:27;69.45;;;20.90;;
10473;SDS011;5284;50.446;7.904;2024-02-21T07:16:32;14.40;;;4.05;;
10473;SDS011;5284;50.446;7.904;2024-02-21T07:21:35;24.95;;;6.40;;
10473;SDS011;5284;50.446;7.904;2024-02-21T07:26:40;23.98;;;7.03;;
10473;SDS011;5284;50.446;7.904;2024-02-21T07:31:47;23.90;;;5.97;;
10473;SDS011;5284;50.446;7.904;2024-02-21T07:36:55;23.38;;;4.50;;
10473;SDS011;5284;50.446;7.904;2024-02-21T07:41:58;18.85;;;5.15;;
10473;SDS011;5284;50.446;7.904;2024-02-21T07:47:03;39.22;;;7.53;;
10473;SDS011;5284;50.446;7.904;2024-02-21T07:52:08;19.98;;;5.95;;
10473;SDS011;5284;50.446;7.904;2024-02-21T07:57:12;22.35;;;4.85;;
10473;SDS011;5284;50.446;7.904;2024-02-21T08:02:17;16.48;;;5.07;;
10473;SDS011;5284;50.446;7.904;2024-02-21T08:07:20;19.65;;;5.22;;
10473;SDS011;5284;50.446;7.904;2024-02-21T08:12:23;19.25;;;3.85;;
10473;SDS011;5284;50.446;7.904;2024-02-21T08:17:27;20.92;;;5.75;;
10473;SDS011;5284;50.446;7.904;2024-02-21T08:22:31;22.50;;;4.18;;
10473;SDS011;5284;50.446;7.904;2024-02-21T08:27:34;16.63;;;4.85;;
10473;SDS011;5284;50.446;7.904;2024-02-21T08:32:38;21.30;;;5.10;;
10473;SDS011;5284;50.446;7.904;2024-02-21T08:37:42;17.02;;;5.20;;
10473;SDS011;5284;50.446;7.904;2024-02-21T08:42:45;21.45;;;4.65;;
10473;SDS011;5284;50.446;7.904;2024-02-21T08:47:49;15.38;;;4.35;;
10473;SDS011;5284;50.446;7.904;2024-02-21T08:52:53;17.38;;;4.15;;
10473;SDS011;5284;50.446;7.904;2024-02-21T08:57:56;23.27;;;4.10;;
10473;SDS011;5284;50.446;7.904;2024-02-21T09:03:01;18.75;;;4.47;;
10473;SDS011;5284;50.446;7.904;2024-02-21T09:08:04;15.23;;;4.22;;
10473;SDS011;5284;50.446;7.904;2024-02-21T09:13:08;14.70;;;4.55;;
10473;SDS011;5284;50.446;7.904;2024-02-21T09:18:13;21.38;;;4.72;;
10473;SDS011;5284;50.446;7.904;2024-02-21T09:23:16;19.05;;;4.28;;
10473;SDS011;5284;50.446;7.904;2024-02-21T09:28:21;11.63;;;3.97;;
10473;SDS011;5284;50.446;7.904;2024-02-21T09:33:26;23.73;;;6.00;;
10473;SDS011;5284;50.446;7.904;2024-02-21T09:38:33;17.42;;;3.65;;
10473;SDS011;5284;50.446;7.904;2024-02-21T09:43:36;13.52;;;3.05;;
10473;SDS011;5284;50.446;7.904;2024-02-21T09:48:57;20.33;;;3.40;;
10473;SDS011;5284;50.446;7.904;2024-02-21T09:54:07;14.68;;;4.32;;
10473;SDS011;5284;50.446;7.904;2024-02-21T09:59:17;13.80;;;3.50;;
10473;SDS011;5284;50.446;7.904;2024-02-21T10:04:23;27.30;;;5.10;;
10473;SDS011;5284;50.446;7.904;2024-02-21T10:09:27;12.00;;;2.90;;
10473;SDS011;5284;50.446;7.904;2024-02-21T10:14:33;17.05;;;3.42;;
10473;SDS011;5284;50.446;7.904;2024-02-21T10:19:38;14.15;;;3.63;;
10473;SDS011;5284;50.446;7.904;2024-02-21T10:24:42;11.13;;;3.28;;
10473;SDS011;5284;50.446;7.904;2024-02-21T10:29:48;12.43;;;3.22;;
10473;SDS011;5284;50.446;7.904;2024-02-21T10:35:01;25.95;;;3.78;;
10473;SDS011;5284;50.446;7.904;2024-02-21T10:40:07;12.60;;;3.75;;
10473;SDS011;5284;50.446;7.904;2024-02-21T10:45:10;15.75;;;3.53;;
10473;SDS011;5284;50.446;7.904;2024-02-21T10:50:18;9.82;;;2.65;;
10473;SDS011;5284;50.446;7.904;2024-02-21T10:55:24;14.48;;;2.50;;
10473;SDS011;5284;50.446;7.904;2024-02-21T11:00:33;12.07;;;3.05;;
10473;SDS011;5284;50.446;7.904;2024-02-21T11:05:38;11.80;;;3.08;;
10473;SDS011;5284;50.446;7.904;2024-02-21T11:10:45;12.60;;;2.70;;
10473;SDS011;5284;50.446;7.904;2024-02-21T11:15:49;9.82;;;2.67;;
10473;SDS011;5284;50.446;7.904;2024-02-21T11:20:53;10.30;;;3.30;;
10473;SDS011;5284;50.446;7.904;2024-02-21T11:26:04;13.90;;;3.55;;
10473;SDS011;5284;50.446;7.904;2024-02-21T11:31:11;17.85;;;2.88;;
10473;SDS011;5284;50.446;7.904;2024-02-21T11:36:24;8.27;;;3.30;;
10473;SDS011;5284;50.446;7.904;2024-02-21T11:41:28;12.88;;;3.08;;
10473;SDS011;5284;50.446;7.904;2024-02-21T11:46:32;8.13;;;2.33;;
10473;SDS011;5284;50.446;7.904;2024-02-21T11:51:36;10.43;;;2.60;;
10473;SDS011;5284;50.446;7.904;2024-02-21T11:56:40;13.88;;;2.78;;
10473;SDS011;5284;50.446;7.904;2024-02-21T12:01:44;18.58;;;3.75;;
10473;SDS011;5284;50.446;7.904;2024-02-21T12:06:49;13.05;;;2.65;;
10473;SDS011;5284;50.446;7.904;2024-02-21T12:11:58;17.40;;;2.95;;
10473;SDS011;5284;50.446;7.904;2024-02-21T12:17:03;10.38;;;2.88;;
10473;SDS011;5284;50.446;7.904;2024-02-21T12:22:09;12.35;;;2.78;;
10473;SDS011;5284;50.446;7.904;2024-02-21T12:27:19;21.08;;;2.95;;
10473;SDS011;5284;50.446;7.904;2024-02-21T12:32:24;13.27;;;3.60;;
10473;SDS011;5284;50.446;7.904;2024-02-21T12:37:28;16.10;;;3.60;;
10473;SDS011;5284;50.446;7.904;2024-02-21T12:42:32;10.10;;;2.58;;
10473;SDS011;5284;50.446;7.904;2024-02-21T12:47:35;10.13;;;2.30;;
10473;SDS011;5284;50.446;7.904;2024-02-21T12:52:40;12.60;;;2.75;;
10473;SDS011;5284;50.446;7.904;2024-02-21T12:57:43;14.77;;;2.72;;
10473;SDS011;5284;50.446;7.904;2024-02-21T13:02:47;11.30;;;2.20;;
10473;SDS011;5284;50.446;7.904;2024-02-21T13:07:51;11.85;;;2.20;;
10473;SDS011;5284;50.446;7.904;2024-02-21T13:12:54;19.20;;;3.22;;
10473;SDS011;5284;50.446;7.904;2024-02-21T13:17:57;10.13;;;2.42;;
10473;SDS011;5284;50.446;7.904;2024-02-21T13:23:02;9.10;;;2.40;;
10473;SDS011;5284;50.446;7.904;2024-02-21T13:28:06;13.55;;;3.30;;
10473;SDS011;5284;50.446;7.904;2024-02-21T13:33:12;14.80;;;2.35;;
10473;SDS011;5284;50.446;7.904;2024-02-21T13:38:17;11.57;;;2.85;;
10473;SDS011;5284;50.446;7.904;2024-02-21T13:43:20;18.40;;;2.63;;
10473;SDS011;5284;50.446;7.904;2024-02-21T13:48:24;16.35;;;1.92;;
10473;SDS011;5284;50.446;7.904;2024-02-21T13:53:31;9.50;;;2.42;;
10473;SDS011;5284;50.446;7.904;2024-02-21T13:58:34;8.60;;;1.83;;
10473;SDS011;5284;50.446;7.904;2024-02-21T14:03:37;7.32;;;2.03;;
10473;SDS011;5284;50.446;7.904;2024-02-21T14:08:41;18.80;;;2.97;;
10473;SDS011;5284;50.446;7.904;2024-02-21T14:13:45;10.75;;;2.40;;
10473;SDS011;5284;50.446;7.904;2024-02-21T14:18:48;9.90;;;2.72;;
10473;SDS011;5284;50.446;7.904;2024-02-21T14:23:53;9.75;;;1.63;;
10473;SDS011;5284;50.446;7.904;2024-02-21T14:28:59;13.75;;;3.40;;
10473;SDS011;5284;50.446;7.904;2024-02-21T14:34:03;10.00;;;2.30;;
10473;SDS011;5284;50.446;7.904;2024-02-21T14:39:07;9.32;;;1.73;;
10473;SDS011;5284;50.446;7.904;2024-02-21T14:44:11;7.10;;;2.08;;
10473;SDS011;5284;50.446;7.904;2024-02-21T14:49:16;16.10;;;2.78;;
10473;SDS011;5284;50.446;7.904;2024-02-21T14:54:24;12.43;;;3.03;;
10473;SDS011;5284;50.446;7.904;2024-02-21T14:59:28;12.70;;;2.83;;
10473;SDS011;5284;50.446;7.904;2024-02-21T15:09:41;12.40;;;3.33;;
10473;SDS011;5284;50.446;7.904;2024-02-21T15:14:44;9.40;;;3.53;;
10473;SDS011;5284;50.446;7.904;2024-02-21T15:19:47;14.90;;;3.88;;
10473;SDS011;5284;50.446;7.904;2024-02-21T15:24:53;10.20;;;3.53;;
10473;SDS011;5284;50.446;7.904;2024-02-21T15:29:56;15.82;;;3.85;;
10473;SDS011;5284;50.446;7.904;2024-02-21T15:34:59;14.95;;;3.47;;
10473;SDS011;5284;50.446;7.904;2024-02-21T15:40:05;16.33;;;5.70;;
10473;SDS011;5284;50.446;7.904;2024-02-21T15:45:10;14.40;;;3.87;;
10473;SDS011;5284;50.446;7.904;2024-02-21T15:50:13;19.17;;;5.03;;
10473;SDS011;5284;50.446;7.904;2024-02-21T15:55:18;18.35;;;6.05;;
10473;SDS011;5284;50.446;7.904;2024-02-21T16:00:22;9.68;;;3.95;;
10473;SDS011;5284;50.446;7.904;2024-02-21T16:05:25;10.85;;;3.08;;
10473;SDS011;5284;50.446;7.904;2024-02-21T16:10:31;14.70;;;3.85;;
10473;SDS011;5284;50.446;7.904;2024-02-21T16:15:34;9.88;;;3.25;;
10473;SDS011;5284;50.446;7.904;2024-02-21T16:20:38;14.50;;;4.97;;
10473;SDS011;5284;50.446;7.904;2024-02-21T16:25:42;13.90;;;4.15;;
10473;SDS011;5284;50.446;7.904;2024-02-21T16:30:46;8.55;;;2.80;;
10473;SDS011;5284;50.446;7.904;2024-02-21T16:35:49;18.60;;;5.05;;
10473;SDS011;5284;50.446;7.904;2024-02-21T16:40:54;11.63;;;4.25;;
10473;SDS011;5284;50.446;7.904;2024-02-21T16:45:57;10.57;;;2.35;;
10473;SDS011;5284;50.446;7.904;2024-02-21T16:51:00;9.35;;;2.28;;
10473;SDS011;5284;50.446;7.904;2024-02-21T16:56:07;13.25;;;2.60;;
10473;SDS011;5284;50.446;7.904;2024-02-21T17:01:11;12.27;;;3.05;;
10473;SDS011;5284;50.446;7.904;2024-02-21T17:06:15;6.60;;;2.40;;
10473;SDS011;5284;50.446;7.904;2024-02-21T17:11:20;8.23;;;1.95;;
10473;SDS011;5284;50.446;7.904;2024-02-21T17:16:24;11.68;;;2.83;;
10473;SDS011;5284;50.446;7.904;2024-02-21T17:21:28;11.98;;;3.42;;
10473;SDS011;5284;50.446;7.904;2024-02-21T17:26:33;12.98;;;2.13;;
10473;SDS011;5284;50.446;7.904;2024-02-21T17:31:36;19.58;;;2.30;;
10473;SDS011;5284;50.446;7.904;2024-02-21T17:36:40;8.48;;;2.30;;
10473;SDS011;5284;50.446;7.904;2024-02-21T17:41:45;10.30;;;2.85;;
10473;SDS011;5284;50.446;7.904;2024-02-21T17:46:49;9.05;;;2.35;;
10473;SDS011;5284;50.446;7.904;2024-02-21T17:51:53;5.70;;;2.28;;
10473;SDS011;5284;50.446;7.904;2024-02-21T17:56:58;4.22;;;2.38;;
10473;SDS011;5284;50.446;7.904;2024-02-21T18:02:03;10.10;;;2.65;;
10473;SDS011;5284;50.446;7.904;2024-02-21T18:07:07;9.95;;;1.92;;
10473;SDS011;5284;50.446;7.904;2024-02-21T18:12:11;6.47;;;2.13;;
10473;SDS011;5284;50.446;7.904;2024-02-21T18:17:14;8.02;;;2.17;;
10473;SDS011;5284;50.446;7.904;2024-02-21T18:22:18;7.38;;;1.95;;
10473;SDS011;5284;50.446;7.904;2024-02-21T18:27:23;7.63;;;1.92;;
10473;SDS011;5284;50.446;7.904;2024-02-21T18:32:26;16.38;;;2.58;;
10473;SDS011;5284;50.446;7.904;2024-02-21T18:37:29;9.38;;;2.63;;
10473;SDS011;5284;50.446;7.904;2024-02-21T18:42:33;20.38;;;3.05;;
10473;SDS011;5284;50.446;7.904;2024-02-21T18:47:36;7.82;;;2.78;;
10473;SDS011;5284;50.446;7.904;2024-02-21T18:52:40;4.82;;;2.35;;
10473;SDS011;5284;50.446;7.904;2024-02-21T18:57:45;4.28;;;2.15;;
10473;SDS011;5284;50.446;7.904;2024-02-21T19:02:49;5.70;;;1.80;;
10473;SDS011;5284;50.446;7.904;2024-02-21T19:07:52;7.65;;;2.42;;
10473;SDS011;5284;50.446;7.904;2024-02-21T19:12:58;5.30;;;1.60;;
10473;SDS011;5284;50.446;7.904;2024-02-21T19:18:01;6.82;;;1.90;;
10473;SDS011;5284;50.446;7.904;2024-02-21T19:23:04;11.68;;;2.55;;
10473;SDS011;5284;50.446;7.904;2024-02-21T19:28:11;5.43;;;2.42;;
10473;SDS011;5284;50.446;7.904;2024-02-21T19:33:15;11.73;;;2.58;;
10473;SDS011;5284;50.446;7.904;2024-02-21T19:38:20;9.80;;;3.60;;
10473;SDS011;5284;50.446;7.904;2024-02-21T19:43:25;27.60;;;7.82;;
10473;SDS011;5284;50.446;7.904;2024-02-21T19:48:29;11.38;;;3.13;;
10473;SDS011;5284;50.446;7.904;2024-02-21T19:53:32;14.85;;;3.90;;
10473;SDS011;5284;50.446;7.904;2024-02-21T19:58:38;12.55;;;4.07;;
10473;SDS011;5284;50.446;7.904;2024-02-21T20:03:41;18.50;;;6.70;;
10473;SDS011;5284;50.446;7.904;2024-02-21T20:08:46;14.32;;;3.33;;
10473;SDS011;5284;50.446;7.904;2024-02-21T20:13:51;15.98;;;3.33;;
10473;SDS011;5284;50.446;7.904;2024-02-21T20:18:54;5.13;;;2.20;;
10473;SDS011;5284;50.446;7.904;2024-02-21T20:23:58;4.55;;;2.28;;
10473;SDS011;5284;50.446;7.904;2024-02-21T20:29:03;10.85;;;2.03;;
10473;SDS011;5284;50.446;7.904;2024-02-21T20:34:06;13.40;;;2.22;;
10473;SDS011;5284;50.446;7.904;2024-02-21T20:39:09;8.98;;;2.47;;
10473;SDS011;5284;50.446;7.904;2024-02-21T20:44:15;12.93;;;2.00;;
10473;SDS011;5284;50.446;7.904;2024-02-21T20:49:18;12.00;;;2.97;;
10473;SDS011;5284;50.446;7.904;2024-02-21T20:54:21;2.63;;;1.73;;
10473;SDS011;5284;50.446;7.904;2024-02-21T20:59:26;4.07;;;1.67;;
10473;SDS011;5284;50.446;7.904;2024-02-21T21:04:29;11.20;;;2.33;;
10473;SDS011;5284;50.446;7.904;2024-02-21T21:09:33;3.22;;;1.98;;
10473;SDS011;5284;50.446;7.904;2024-02-21T21:14:41;6.10;;;2.03;;
10473;SDS011;5284;50.446;7.904;2024-02-21T21:19:45;7.88;;;2.63;;
10473;SDS011;5284;50.446;7.904;2024-02-21T21:24:48;9.05;;;2.17;;
10473;SDS011;5284;50.446;7.904;2024-02-21T21:29:53;7.30;;;2.30;;
10473;SDS011;5284;50.446;7.904;2024-02-21T21:34:57;10.05;;;2.58;;
10473;SDS011;5284;50.446;7.904;2024-02-21T21:40:00;15.50;;;2.70;;
10473;SDS011;5284;50.446;7.904;2024-02-21T21:45:07;5.50;;;2.63;;
10473;SDS011;5284;50.446;7.904;2024-02-21T21:50:11;7.57;;;2.57;;
10473;SDS011;5284;50.446;7.904;2024-02-21T21:55:15;6.57;;;2.63;;
10473;SDS011;5284;50.446;7.904;2024-02-21T22:00:19;10.30;;;3.00;;
10473;SDS011;5284;50.446;7.904;2024-02-21T22:05:23;8.18;;;3.45;;
10473;SDS011;5284;50.446;7.904;2024-02-21T22:10:27;11.68;;;2.80;;
10473;SDS011;5284;50.446;7.904;2024-02-21T22:15:31;10.38;;;2.83;;
10473;SDS011;5284;50.446;7.904;2024-02-21T22:20:35;4.57;;;2.50;;
10473;SDS011;5284;50.446;7.904;2024-02-21T22:25:39;4.18;;;2.20;;
10473;SDS011;5284;50.446;7.904;2024-02-21T22:30:46;8.83;;;2.53;;
10473;SDS011;5284;50.446;7.904;2024-02-21T22:35:50;6.32;;;2.47;;
10473;SDS011;5284;50.446;7.904;2024-02-21T22:40:54;8.15;;;3.25;;
10473;SDS011;5284;50.446;7.904;2024-02-21T22:45:59;5.75;;;3.25;;
10473;SDS011;5284;50.446;7.904;2024-02-21T22:51:02;3.83;;;1.88;;
10473;SDS011;5284;50.446;7.904;2024-02-21T22:56:06;7.10;;;2.00;;
10473;SDS011;5284;50.446;7.904;2024-02-21T23:01:12;11.10;;;2.25;;
10473;SDS011;5284;50.446;7.904;2024-02-21T23:06:15;5.38;;;2.22;;
10473;SDS011;5284;50.446;7.904;2024-02-21T23:11:19;3.00;;;1.95;;
10473;SDS011;5284;50.446;7.904;2024-02-21T23:16:24;4.88;;;2.20;;
10473;SDS011;5284;50.446;7.904;2024-02-21T23:21:27;5.75;;;1.85;;
10473;SDS011;5284;50.446;7.904;2024-02-21T23:26:30;3.85;;;2.45;;
10473;SDS011;5284;50.446;7.904;2024-02-21T23:31:39;3.63;;;2.10;;
10473;SDS011;5284;50.446;7.904;2024-02-21T23:36:43;9.38;;;2.13;;
10473;SDS011;5284;50.446;7.904;2024-02-21T23:41:47;4.18;;;1.90;;
10473;SDS011;5284;50.446;7.904;2024-02-21T23:46:52;4.13;;;1.60;;
10473;SDS011;5284;50.446;7.904;2024-02-21T23:51:55;4.18;;;1.60;;
10473;SDS011;5284;50.446;7.904;2024-02-21T23:57:02;3.60;;;2.17;;
